Time;durP1;ratioP1;P1;durP2;ratioP2;P2;SDS_P1;SDS_P2;PMS_P1;PMS_P2;Temp;Humidity;BMP_temperature;BMP_pressure;BME280_temperature;BME280_humidity;BME280_pressure;Samples;Min_cycle;Max_cycle;Signal;HPM_P1;HPM_P2
2022/04/06 00:00:06;;;;;;;31.00;11.55;;;;;;;8.38;95.54;98423.97;4998651;28;20027;-53
2022/04/06 00:02:31;;;;;;;25.35;11.55;;;;;;;8.30;96.24;98424.41;4996407;28;20349;-51
2022/04/06 00:04:56;;;;;;;24.95;11.52;;;;;;;8.28;96.23;98413.97;4993548;28;20033;-51
2022/04/06 00:07:22;;;;;;;27.50;11.48;;;;;;;8.25;96.21;98417.13;4995417;28;20049;-51
2022/04/06 00:09:47;;;;;;;27.58;11.43;;;;;;;8.26;95.58;98418.75;4991213;28;20476;-53
2022/04/06 00:12:13;;;;;;;25.40;10.70;;;;;;;8.29;95.43;98415.59;4998441;28;20046;-52
2022/04/06 00:14:38;;;;;;;23.38;10.70;;;;;;;8.26;95.40;98416.06;4994942;28;20459;-50
2022/04/06 00:17:05;;;;;;;27.52;12.30;;;;;;;8.30;94.96;98416.41;4994956;28;20046;-54
2022/04/06 00:19:32;;;;;;;23.75;11.13;;;;;;;8.32;94.43;98415.09;4995579;28;20072;-53
2022/04/06 00:21:58;;;;;;;25.90;10.55;;;;;;;8.36;93.66;98416.22;4994113;28;20157;-53
2022/04/06 00:24:24;;;;;;;25.45;11.15;;;;;;;8.34;93.54;98420.22;4990861;28;20019;-53
2022/04/06 00:26:49;;;;;;;20.23;10.20;;;;;;;8.39;92.30;98417.59;4990011;28;20035;-53
2022/04/06 00:29:14;;;;;;;26.63;11.15;;;;;;;8.38;91.61;98416.75;4989695;28;20042;-52
2022/04/06 00:31:40;;;;;;;22.20;10.63;;;;;;;8.41;90.88;98412.81;4999500;28;20038;-53
2022/04/06 00:34:05;;;;;;;26.98;10.02;;;;;;;8.49;90.48;98419.63;4991997;28;20073;-54
2022/04/06 00:36:31;;;;;;;25.95;10.30;;;;;;;8.57;88.89;98413.84;4996485;28;20049;-52
2022/04/06 00:38:56;;;;;;;30.05;11.25;;;;;;;8.56;88.40;98410.38;4997193;28;20034;-53
2022/04/06 00:41:22;;;;;;;26.17;11.98;;;;;;;8.54;88.83;98417.00;4994383;28;20042;-53
2022/04/06 00:44:10;;;;;;;25.30;10.48;;;;;;;8.54;88.26;98407.13;4998484;28;20077;-51
2022/04/06 00:46:35;;;;;;;29.63;10.30;;;;;;;8.51;88.23;98412.16;4992367;28;20038;-52
2022/04/06 00:49:01;;;;;;;21.60;10.02;;;;;;;8.49;88.01;98400.94;4990263;28;20043;-52
2022/04/06 00:51:26;;;;;;;24.63;9.95;;;;;;;8.53;87.17;98413.50;4995142;28;20413;-54
2022/04/06 00:53:51;;;;;;;25.88;9.88;;;;;;;8.55;86.88;98413.28;4997568;28;20476;-53
2022/04/06 00:56:17;;;;;;;30.23;11.60;;;;;;;8.53;86.73;98407.38;4988855;28;20047;-53
2022/04/06 00:58:42;;;;;;;26.05;10.80;;;;;;;8.51;87.59;98412.16;4994973;28;20038;-50
2022/04/06 01:01:08;;;;;;;31.05;11.15;;;;;;;8.38;88.88;98407.94;4989201;28;20042;-53
2022/04/06 01:03:34;;;;;;;26.92;10.68;;;;;;;8.36;89.52;98410.88;4994002;28;20034;-52
2022/04/06 01:05:59;;;;;;;23.52;10.60;;;;;;;8.35;88.74;98406.59;4990600;28;20047;-52
2022/04/06 01:08:25;;;;;;;23.30;10.07;;;;;;;8.34;88.34;98421.00;4994174;28;20503;-52
2022/04/06 01:10:50;;;;;;;19.42;9.73;;;;;;;8.33;88.26;98422.03;4987794;28;20381;-53
2022/04/06 01:13:16;;;;;;;31.85;11.07;;;;;;;8.36;88.13;98426.91;5007977;28;20034;-51
2022/04/06 01:15:41;;;;;;;24.38;10.60;;;;;;;8.30;88.22;98417.19;4988533;28;20038;-54
2022/04/06 01:18:08;;;;;;;22.42;9.73;;;;;;;8.24;89.24;98418.22;4989779;28;20380;-53
2022/04/06 01:20:33;;;;;;;19.95;9.13;;;;;;;8.25;88.93;98411.81;4994080;28;20436;-51
2022/04/06 01:22:59;;;;;;;29.27;9.98;;;;;;;8.25;88.02;98408.31;4993794;28;20290;-50
2022/04/06 01:25:26;;;;;;;26.65;9.40;;;;;;;8.30;86.03;98409.19;4992705;28;20049;-51
2022/04/06 01:27:51;;;;;;;21.58;8.40;;;;;;;8.30;85.62;98403.84;4991911;28;20054;-50
2022/04/06 01:30:17;;;;;;;18.35;7.55;;;;;;;8.30;84.89;98403.84;4990462;28;20084;-52
2022/04/06 01:32:42;;;;;;;17.63;7.60;;;;;;;8.34;83.50;98399.66;4995280;28;20423;-50
2022/04/06 01:35:08;;;;;;;19.90;8.18;;;;;;;8.34;82.74;98407.66;4994825;28;20555;-51
2022/04/06 01:37:34;;;;;;;29.13;8.20;;;;;;;8.33;82.42;98406.03;4991052;28;20046;-53
2022/04/06 01:39:59;;;;;;;14.98;7.43;;;;;;;8.36;81.22;98399.38;4995858;28;20055;-50
2022/04/06 01:42:25;;;;;;;16.80;6.90;;;;;;;8.36;80.67;98391.38;4995502;28;20038;-52
2022/04/06 01:44:50;;;;;;;19.33;7.20;;;;;;;8.35;79.95;98401.25;4991793;28;20077;-52
2022/04/06 01:47:17;;;;;;;20.38;6.57;;;;;;;8.36;80.31;98389.53;4994325;28;20073;-52
2022/04/06 01:52:27;;;;;;;21.70;6.63;;;;;;;8.26;81.49;98388.56;4993312;28;20089;-54
2022/04/06 01:55:04;;;;;;;20.27;7.70;;;;;;;8.27;81.25;98398.22;4999732;28;20026;-54
2022/04/06 01:57:30;;;;;;;25.80;7.55;;;;;;;8.22;81.88;98393.63;4972893;28;20488;-52
2022/04/06 01:59:55;;;;;;;23.20;7.03;;;;;;;8.20;82.87;98401.06;4972690;28;20035;-53
2022/04/06 02:02:21;;;;;;;18.92;7.93;;;;;;;8.18;83.30;98393.28;4994460;28;20053;-52
2022/04/06 02:04:47;;;;;;;18.35;7.28;;;;;;;8.18;82.92;98392.47;4993828;28;20535;-53
2022/04/06 02:07:13;;;;;;;19.63;7.93;;;;;;;8.15;83.46;98392.97;4987683;28;20651;-51
2022/04/06 02:09:39;;;;;;;25.08;8.23;;;;;;;8.16;83.94;98386.56;4994071;28;20480;-52
2022/04/06 02:12:05;;;;;;;16.38;8.32;;;;;;;8.13;84.08;98389.75;4988098;28;20054;-54
2022/04/06 02:14:31;;;;;;;21.42;8.05;;;;;;;8.16;84.12;98389.25;4989070;28;20113;-53
2022/04/06 02:16:56;;;;;;;19.83;7.75;;;;;;;8.18;84.11;98379.13;4997877;28;20489;-52
2022/04/06 02:19:21;;;;;;;20.80;8.05;;;;;;;8.23;82.82;98381.88;4995243;28;20109;-51
2022/04/06 02:21:47;;;;;;;19.13;8.13;;;;;;;8.12;82.73;98374.81;4995657;28;20045;-54
2022/04/06 02:24:13;;;;;;;17.52;7.65;;;;;;;8.11;83.98;98381.16;4990089;28;20077;-53
2022/04/06 02:26:39;;;;;;;22.10;7.85;;;;;;;8.07;83.93;98391.53;4992987;28;20038;-51
2022/04/06 02:29:05;;;;;;;19.63;7.72;;;;;;;8.17;82.34;98385.53;4997225;28;21431;-53
2022/04/06 02:31:32;;;;;;;16.60;7.47;;;;;;;8.12;82.66;98378.28;4993382;28;20460;-52
2022/04/06 02:33:58;;;;;;;21.95;7.72;;;;;;;8.08;83.20;98379.81;4996313;28;20037;-51
2022/04/06 02:36:23;;;;;;;21.98;7.70;;;;;;;7.98;83.78;98382.34;5000082;28;20472;-52
2022/04/06 02:38:49;;;;;;;28.05;7.88;;;;;;;7.93;84.49;98380.41;4987936;28;20084;-53
2022/04/06 02:41:14;;;;;;;22.15;7.85;;;;;;;7.89;84.26;98379.31;4991084;28;20456;-53
2022/04/06 02:43:40;;;;;;;21.67;7.38;;;;;;;7.88;83.54;98375.00;4994020;28;20022;-52
2022/04/06 02:46:05;;;;;;;15.95;7.13;;;;;;;7.83;83.56;98372.25;4990900;28;20504;-51
2022/04/06 02:48:31;;;;;;;17.67;6.18;;;;;;;7.82;83.24;98373.31;4992442;28;20535;-53
2022/04/06 02:50:56;;;;;;;14.23;4.93;;;;;;;7.91;81.29;98376.38;4979210;28;20097;-52
2022/04/06 02:53:22;;;;;;;18.95;6.68;;;;;;;7.82;82.56;98381.31;4968748;28;20085;-52
2022/04/06 02:55:47;;;;;;;21.52;5.82;;;;;;;7.82;81.11;98389.34;4983535;28;20125;-53
2022/04/06 02:58:12;;;;;;;19.30;5.72;;;;;;;7.80;79.77;98388.75;4996928;28;20087;-52
2022/04/06 03:00:38;;;;;;;10.05;4.65;;;;;;;7.88;78.36;98377.66;4991803;28;20042;-53
2022/04/06 03:03:03;;;;;;;17.92;5.72;;;;;;;7.79;78.76;98381.81;4994123;28;20041;-50
2022/04/06 03:05:29;;;;;;;14.75;4.22;;;;;;;7.83;77.71;98376.78;4999492;28;20034;-51
2022/04/06 03:07:55;;;;;;;16.38;5.93;;;;;;;7.78;78.90;98383.66;4988349;28;20023;-50
2022/04/06 03:10:20;;;;;;;14.80;4.95;;;;;;;7.71;78.51;98377.72;4989578;28;20042;-52
2022/04/06 03:12:46;;;;;;;13.73;5.00;;;;;;;7.69;77.94;98376.34;4998797;28;20030;-53
2022/04/06 03:15:11;;;;;;;8.02;4.13;;;;;;;7.67;77.73;98373.09;4987432;28;20061;-51
2022/04/06 03:17:37;;;;;;;21.77;4.93;;;;;;;7.64;76.98;98376.25;4986070;28;20049;-50
2022/04/06 03:20:04;;;;;;;19.02;4.78;;;;;;;7.63;76.61;98371.97;4987461;28;20034;-51
2022/04/06 03:22:30;;;;;;;10.93;4.18;;;;;;;7.54;77.25;98371.59;4991894;28;20387;-52
2022/04/06 03:24:55;;;;;;;18.25;4.40;;;;;;;7.54;76.36;98372.38;4994701;28;20100;-53
2022/04/06 03:27:21;;;;;;;10.43;4.13;;;;;;;7.57;74.93;98371.91;4993531;28;20556;-50
2022/04/06 03:29:46;;;;;;;14.00;4.22;;;;;;;7.51;75.17;98367.53;4994984;28;20054;-51
2022/04/06 03:32:11;;;;;;;13.32;4.15;;;;;;;7.53;74.59;98370.75;4996723;28;20046;-51
2022/04/06 03:34:37;;;;;;;12.02;3.85;;;;;;;7.50;74.28;98370.44;5000234;28;20488;-51
2022/04/06 03:37:03;;;;;;;10.45;3.60;;;;;;;7.50;73.77;98360.59;4991965;28;20054;-53
2022/04/06 03:39:28;;;;;;;10.95;3.17;;;;;;;7.50;72.11;98362.44;4991272;28;20034;-53
2022/04/06 03:41:53;;;;;;;9.93;3.03;;;;;;;7.51;71.37;98348.88;4991225;28;20128;-53
2022/04/06 03:44:19;;;;;;;12.88;3.05;;;;;;;7.55;71.10;98363.31;4991354;28;20038;-53
2022/04/06 03:46:44;;;;;;;14.60;3.35;;;;;;;7.58;70.57;98356.69;4990688;28;20484;-52
2022/04/06 03:49:10;;;;;;;9.00;2.95;;;;;;;7.53;70.73;98352.09;4996579;28;20030;-54
2022/04/06 03:51:35;;;;;;;7.57;2.83;;;;;;;7.51;70.96;98348.88;5002086;28;20435;-53
2022/04/06 03:54:01;;;;;;;9.55;3.08;;;;;;;7.47;70.45;98355.75;4997428;28;20034;-53
2022/04/06 03:56:26;;;;;;;12.13;3.05;;;;;;;7.46;69.90;98351.47;5000465;28;20046;-54
2022/04/06 03:58:52;;;;;;;9.75;3.40;;;;;;;7.43;69.82;98351.94;4974798;28;20084;-51
2022/04/06 04:01:17;;;;;;;11.50;3.17;;;;;;;7.42;71.52;98347.66;4997912;28;20133;-54
2022/04/06 04:03:43;;;;;;;8.23;2.95;;;;;;;7.44;71.93;98348.25;4995852;28;20073;-50
2022/04/06 04:06:08;;;;;;;11.80;3.20;;;;;;;7.38;72.86;98351.88;4997272;28;20045;-51
2022/04/06 04:08:34;;;;;;;13.82;3.30;;;;;;;7.31;72.80;98345.88;4998807;28;20022;-50
2022/04/06 04:10:59;;;;;;;16.67;3.50;;;;;;;7.39;72.81;98342.84;4995200;28;20508;-51
2022/04/06 04:13:24;;;;;;;9.90;3.17;;;;;;;7.34;72.75;98348.09;4998617;28;20118;-53
2022/04/06 04:15:50;;;;;;;10.20;3.42;;;;;;;7.27;72.72;98342.09;5001713;28;20061;-53
2022/04/06 04:18:18;;;;;;;12.57;4.15;;;;;;;7.24;72.84;98340.72;4991665;28;20428;-51
2022/04/06 04:20:45;;;;;;;9.63;3.63;;;;;;;7.28;72.49;98341.84;4990803;28;20124;-50
2022/04/06 04:23:11;;;;;;;9.00;3.28;;;;;;;7.26;72.42;98337.81;4990865;28;20188;-53
2022/04/06 04:25:37;;;;;;;7.20;2.90;;;;;;;7.28;72.59;98341.03;4990166;28;20091;-50
2022/04/06 04:28:02;;;;;;;10.43;3.15;;;;;;;7.28;72.82;98331.19;4998214;28;20052;-54
2022/04/06 04:30:28;;;;;;;13.95;3.15;;;;;;;7.24;72.83;98348.72;4995652;28;20046;-51
2022/04/06 04:32:53;;;;;;;17.02;3.17;;;;;;;7.26;72.95;98333.31;4994093;28;20125;-53
2022/04/06 04:35:19;;;;;;;6.75;2.92;;;;;;;7.23;72.87;98336.44;4996587;28;20389;-53
2022/04/06 04:37:44;;;;;;;9.30;2.80;;;;;;;7.16;73.31;98332.31;5000607;28;20030;-53
2022/04/06 04:40:10;;;;;;;7.88;2.70;;;;;;;7.09;73.73;98330.63;4995183;28;20132;-53
2022/04/06 04:42:35;;;;;;;15.88;3.42;;;;;;;7.07;74.79;98330.06;4995157;28;20516;-52
2022/04/06 04:45:01;;;;;;;14.55;3.22;;;;;;;7.03;74.37;98325.44;4988250;28;20046;-51
2022/04/06 04:47:27;;;;;;;9.02;3.00;;;;;;;7.07;73.98;98331.91;4996890;28;20112;-54
2022/04/06 04:49:52;;;;;;;10.38;3.08;;;;;;;7.03;73.87;98328.91;4994742;28;20030;-53
2022/04/06 04:52:17;;;;;;;10.77;3.17;;;;;;;7.01;74.25;98328.34;4994738;28;20428;-53
2022/04/06 04:54:43;;;;;;;10.50;2.90;;;;;;;6.97;75.06;98329.09;4992146;28;20030;-49
2022/04/06 04:57:09;;;;;;;8.80;3.03;;;;;;;6.98;73.46;98326.16;4994776;28;20404;-52
2022/04/06 04:59:34;;;;;;;11.18;2.75;;;;;;;6.97;73.80;98319.22;4988362;28;20382;-53
2022/04/06 05:01:59;;;;;;;12.40;2.67;;;;;;;6.99;74.00;98318.97;4989991;28;20497;-50
2022/04/06 05:04:25;;;;;;;18.75;4.45;;;;;;;7.02;73.67;98319.31;4988907;28;20034;-53
2022/04/06 05:06:50;;;;;;;10.40;3.00;;;;;;;6.96;73.70;98309.59;4989416;28;20038;-51
2022/04/06 05:09:17;;;;;;;9.52;2.65;;;;;;;6.98;73.49;98314.72;4989837;28;20033;-51
2022/04/06 05:11:43;;;;;;;7.35;2.60;;;;;;;6.95;73.36;98310.66;4997957;28;20369;-52
2022/04/06 05:14:09;;;;;;;10.00;3.03;;;;;;;7.03;73.34;98318.25;4996551;28;20041;-51
2022/04/06 05:16:35;;;;;;;6.97;2.60;;;;;;;7.00;73.48;98318.75;5001283;28;20062;-54
2022/04/06 05:19:01;;;;;;;7.45;2.85;;;;;;;7.06;73.09;98303.66;4995614;28;20034;-53
2022/04/06 05:21:27;;;;;;;10.18;2.60;;;;;;;6.99;73.28;98305.66;4992839;28;20042;-54
2022/04/06 05:23:52;;;;;;;13.02;2.92;;;;;;;6.92;73.65;98311.16;4997150;28;20040;-51
2022/04/06 05:26:18;;;;;;;6.35;2.13;;;;;;;6.98;73.58;98315.50;4996754;28;20133;-51
2022/04/06 05:28:43;;;;;;;7.82;2.50;;;;;;;7.09;72.17;98313.84;4998343;28;20068;-53
2022/04/06 05:31:09;;;;;;;10.90;2.55;;;;;;;7.12;73.13;98321.34;4993913;28;20402;-52
2022/04/06 05:33:34;;;;;;;8.73;3.28;;;;;;;7.17;72.39;98317.97;4995496;28;20053;-52
2022/04/06 05:36:00;;;;;;;10.48;2.42;;;;;;;7.13;72.02;98320.28;4994634;28;20037;-53
2022/04/06 05:38:28;;;;;;;13.38;2.78;;;;;;;7.08;72.26;98326.34;4999417;28;20026;-51
2022/04/06 05:40:53;;;;;;;7.47;2.70;;;;;;;7.10;72.09;98324.25;4988266;28;20072;-53
2022/04/06 05:43:19;;;;;;;5.75;2.40;;;;;;;7.10;73.42;98329.56;4988584;28;20350;-54
2022/04/06 05:45:44;;;;;;;8.23;2.88;;;;;;;7.16;71.68;98325.13;4989148;28;20129;-49
2022/04/06 05:48:10;;;;;;;10.13;2.60;;;;;;;7.16;72.36;98332.31;4992459;28;20041;-53
2022/04/06 05:50:35;;;;;;;10.55;2.25;;;;;;;7.22;72.20;98326.03;4989374;28;20042;-50
2022/04/06 05:53:01;;;;;;;8.95;2.78;;;;;;;7.26;71.76;98329.81;4998129;28;20038;-50
2022/04/06 05:55:26;;;;;;;10.68;2.65;;;;;;;7.30;71.11;98320.28;4989031;28;20050;-52
2022/04/06 05:57:52;;;;;;;5.63;2.65;;;;;;;7.35;70.92;98331.03;4995217;28;20029;-52
2022/04/06 06:00:17;;;;;;;11.25;3.00;;;;;;;7.32;70.51;98328.84;4993693;28;20378;-51
2022/04/06 06:02:44;;;;;;;7.55;2.60;;;;;;;7.31;71.30;98329.88;4999068;28;20030;-51
2022/04/06 06:05:10;;;;;;;13.90;2.97;;;;;;;7.38;70.62;98324.41;4991272;28;20018;-51
2022/04/06 06:07:35;;;;;;;9.93;3.28;;;;;;;7.33;70.12;98327.78;4995671;28;20029;-52
2022/04/06 06:10:02;;;;;;;5.15;2.88;;;;;;;7.42;70.45;98330.88;4996418;28;20063;-53
2022/04/06 06:12:28;;;;;;;7.97;3.08;;;;;;;7.38;70.80;98327.06;4992247;28;20101;-51
2022/04/06 06:14:53;;;;;;;8.93;3.00;;;;;;;7.52;70.04;98326.50;4988432;28;20461;-54
2022/04/06 06:17:19;;;;;;;6.45;2.55;;;;;;;7.50;69.86;98325.91;4988827;28;20041;-52
2022/04/06 06:19:44;;;;;;;11.48;3.30;;;;;;;7.45;70.37;98331.19;4989510;28;20034;-54
2022/04/06 06:22:10;;;;;;;13.88;2.80;;;;;;;7.50;69.93;98333.13;4994071;28;20037;-54
2022/04/06 06:24:35;;;;;;;13.13;2.97;;;;;;;7.47;70.16;98326.41;4999794;28;20026;-53
2022/04/06 06:27:00;;;;;;;10.02;3.00;;;;;;;7.45;70.14;98325.84;4997128;28;20156;-51
2022/04/06 06:29:26;;;;;;;12.82;2.95;;;;;;;7.51;69.83;98326.72;4998491;28;20080;-52
2022/04/06 06:31:51;;;;;;;11.20;3.45;;;;;;;7.53;69.91;98325.44;4989663;28;20050;-51
2022/04/06 06:34:17;;;;;;;8.68;3.10;;;;;;;7.53;69.70;98317.41;4989696;28;20248;-52
2022/04/06 06:36:42;;;;;;;12.75;3.35;;;;;;;7.53;69.86;98317.41;4997027;28;20145;-52
2022/04/06 06:39:08;;;;;;;6.43;2.90;;;;;;;7.60;69.86;98319.13;4992912;28;20396;-53
2022/04/06 06:41:35;;;;;;;8.40;2.88;;;;;;;7.67;69.71;98311.75;4993129;28;20042;-53
2022/04/06 06:44:01;;;;;;;10.32;2.78;;;;;;;7.68;69.53;98302.69;4997636;28;20103;-53
2022/04/06 06:46:27;;;;;;;8.48;2.70;;;;;;;7.74;68.99;98296.41;4981913;28;20049;-51
2022/04/06 06:48:54;;;;;;;14.50;3.08;;;;;;;7.77;69.17;98306.56;4993897;28;20030;-51
2022/04/06 06:51:19;;;;;;;10.10;3.00;;;;;;;7.81;68.96;98302.34;4995529;28;20123;-52
2022/04/06 06:53:44;;;;;;;11.90;3.20;;;;;;;7.84;68.60;98307.19;4988434;28;20026;-53
2022/04/06 06:56:10;;;;;;;12.73;3.28;;;;;;;7.90;68.61;98302.72;4992079;28;20034;-53
2022/04/06 06:58:35;;;;;;;7.05;2.67;;;;;;;8.02;67.97;98305.28;4998212;28;20080;-51
2022/04/06 07:01:01;;;;;;;7.13;2.75;;;;;;;7.96;68.59;98307.88;4994148;28;20097;-52
2022/04/06 07:03:26;;;;;;;9.10;2.42;;;;;;;8.06;68.53;98309.06;4994177;28;20488;-49
2022/04/06 07:05:52;;;;;;;8.77;2.45;;;;;;;8.13;67.80;98304.34;4996146;28;20035;-52
2022/04/06 07:08:17;;;;;;;8.05;2.72;;;;;;;8.36;67.38;98305.94;5002467;28;20029;-51
2022/04/06 07:10:46;;;;;;;11.43;2.90;;;;;;;8.35;67.13;98307.00;4994235;28;20046;-51
2022/04/06 07:13:12;;;;;;;11.60;2.88;;;;;;;8.48;66.95;98295.94;4995755;28;20053;-50
2022/04/06 07:15:39;;;;;;;12.40;2.72;;;;;;;8.63;66.60;98289.94;4992959;28;20373;-51
2022/04/06 07:18:06;;;;;;;10.93;2.78;;;;;;;8.56;66.08;98292.84;4992558;28;20035;-50
2022/04/06 07:20:31;;;;;;;10.88;3.17;;;;;;;8.66;66.65;98291.31;4998414;28;20049;-53
2022/04/06 07:22:57;;;;;;;8.73;2.83;;;;;;;8.59;65.76;98291.53;4998300;28;20040;-50
2022/04/06 07:25:22;;;;;;;11.27;2.72;;;;;;;8.66;65.54;98292.09;5000916;28;20050;-49
2022/04/06 07:27:48;;;;;;;10.38;2.72;;;;;;;8.74;65.87;98283.66;4994331;28;20115;-49
2022/04/06 07:30:13;;;;;;;13.07;2.65;;;;;;;8.67;65.64;98290.28;4991083;28;20042;-50
2022/04/06 07:32:39;;;;;;;8.52;2.55;;;;;;;8.77;65.62;98285.81;4996674;28;20029;-52
2022/04/06 07:35:05;;;;;;;8.98;2.95;;;;;;;8.74;65.74;98286.34;4974536;28;20041;-52
2022/04/06 07:37:47;;;;;;;8.57;2.95;;;;;;;8.79;65.74;98293.59;4998405;28;20433;-52
2022/04/06 07:40:13;;;;;;;5.85;2.50;;;;;;;8.73;66.26;98290.03;4998691;28;20030;-52
2022/04/06 07:42:39;;;;;;;7.97;2.75;;;;;;;8.78;66.05;98289.28;4993705;28;20453;-53
2022/04/06 07:45:07;;;;;;;13.05;2.90;;;;;;;8.77;66.30;98280.47;4999489;28;20052;-52
2022/04/06 07:47:32;;;;;;;13.07;3.38;;;;;;;8.76;66.41;98280.72;4993813;28;20033;-51
2022/04/06 07:49:58;;;;;;;5.97;2.70;;;;;;;8.93;66.28;98275.25;4997650;28;20038;-50
2022/04/06 07:52:27;;;;;;;9.63;2.58;;;;;;;8.84;66.48;98283.75;4990861;28;20049;-50
2022/04/06 07:54:52;;;;;;;16.40;3.70;;;;;;;8.94;65.70;98276.88;4989786;28;20038;-53
2022/04/06 07:57:22;;;;;;;10.40;2.80;;;;;;;8.97;66.49;98271.81;4991258;28;20042;-52
2022/04/06 07:59:48;;;;;;;11.10;2.95;;;;;;;9.09;66.19;98277.00;5000712;28;20045;-53
2022/04/06 08:02:13;;;;;;;9.07;3.08;;;;;;;9.14;66.37;98269.03;4997829;28;20029;-50
2022/04/06 08:04:39;;;;;;;10.82;2.92;;;;;;;9.09;66.61;98274.34;4995384;28;20821;-50
2022/04/06 08:07:04;;;;;;;8.07;3.15;;;;;;;8.92;65.57;98271.78;4990863;28;20050;-52
2022/04/06 08:09:30;;;;;;;10.48;3.22;;;;;;;9.25;65.86;98281.38;4996610;28;20032;-50
2022/04/06 08:11:55;;;;;;;11.75;2.83;;;;;;;9.40;65.29;98271.88;4998487;28;20125;-50
2022/04/06 08:14:21;;;;;;;15.23;3.20;;;;;;;9.57;65.17;98269.81;4994614;28;20036;-51
2022/04/06 08:16:46;;;;;;;11.30;3.38;;;;;;;9.41;65.02;98270.78;4998454;28;20045;-51
2022/04/06 08:19:12;;;;;;;10.68;3.08;;;;;;;9.37;64.78;98269.72;4995834;28;20026;-51
2022/04/06 08:21:37;;;;;;;10.95;3.47;;;;;;;9.04;66.14;98271.63;4990919;28;20049;-54
2022/04/06 08:24:03;;;;;;;9.98;3.47;;;;;;;9.18;65.62;98270.09;4991019;28;20037;-50
2022/04/06 08:26:29;;;;;;;9.95;3.08;;;;;;;9.31;65.45;98270.72;4991008;28;20042;-53
2022/04/06 08:28:54;;;;;;;9.95;3.45;;;;;;;9.30;65.34;98269.91;5005432;28;20042;-50
2022/04/06 08:31:20;;;;;;;11.27;4.10;;;;;;;9.23;65.04;98269.34;4997710;28;20038;-50
2022/04/06 08:33:46;;;;;;;13.05;3.80;;;;;;;9.28;64.78;98264.84;4990763;28;20439;-52
2022/04/06 08:36:12;;;;;;;10.88;3.38;;;;;;;9.22;64.65;98265.06;4994012;28;20045;-49
2022/04/06 08:38:37;;;;;;;10.63;3.33;;;;;;;9.46;64.54;98263.63;4994432;28;20038;-49
2022/04/06 08:41:03;;;;;;;15.23;3.40;;;;;;;9.49;65.11;98268.44;4993699;28;20493;-52
2022/04/06 08:43:28;;;;;;;14.68;3.42;;;;;;;9.50;63.08;98255.88;5004050;28;20037;-52
2022/04/06 08:45:54;;;;;;;7.93;3.05;;;;;;;9.45;63.30;98266.53;4989694;28;20034;-54
2022/04/06 08:48:20;;;;;;;14.82;3.35;;;;;;;9.35;63.68;98267.28;5001370;28;20476;-52
2022/04/06 08:50:45;;;;;;;5.10;2.92;;;;;;;9.64;63.54;98267.72;4991754;28;20041;-49
2022/04/06 08:53:11;;;;;;;10.07;3.30;;;;;;;9.57;63.40;98259.13;4997841;28;20266;-51
2022/04/06 08:55:36;;;;;;;5.40;2.38;;;;;;;9.57;63.51;98259.13;4998208;28;20089;-49
2022/04/06 08:58:02;;;;;;;12.30;3.00;;;;;;;9.79;63.96;98266.19;4992232;28;20096;-52
2022/04/06 09:00:27;;;;;;;9.35;2.92;;;;;;;9.88;63.82;98265.44;4991230;28;20065;-50
2022/04/06 09:02:53;;;;;;;9.43;3.55;;;;;;;9.83;62.87;98253.91;4990817;28;20034;-52
2022/04/06 09:05:23;;;;;;;11.57;3.22;;;;;;;9.91;62.42;98248.06;4987529;28;20078;-53
2022/04/06 09:07:52;;;;;;;10.60;2.92;;;;;;;9.88;61.95;98253.91;4992681;28;20025;-53
2022/04/06 09:10:31;;;;;;;10.75;2.58;;;;;;;10.19;61.60;98251.38;4991032;28;20138;-52
2022/04/06 09:13:19;;;;;;;6.78;2.70;;;;;;;10.33;61.03;98226.53;4990080;28;20560;-52
2022/04/06 09:15:44;;;;;;;14.88;3.05;;;;;;;10.37;61.10;98250.91;4992440;28;20073;-55
2022/04/06 09:18:10;;;;;;;8.60;3.03;;;;;;;10.31;61.66;98244.72;4995766;28;20077;-50
2022/04/06 09:20:35;;;;;;;9.15;2.60;;;;;;;10.90;60.13;98239.97;4988875;28;20042;-52
2022/04/06 09:23:04;;;;;;;6.40;2.80;;;;;;;10.73;60.33;98249.09;5003666;28;20042;-52
2022/04/06 09:25:34;;;;;;;11.88;3.17;;;;;;;10.73;59.63;98237.53;4988262;28;20488;-50
2022/04/06 09:28:10;;;;;;;12.45;3.63;;;;;;;11.09;59.32;98242.91;4998147;28;20060;-54
2022/04/06 09:30:41;;;;;;;12.93;2.85;;;;;;;11.37;58.51;98242.31;4992258;28;20085;-53
2022/04/06 09:33:12;;;;;;;10.90;2.58;;;;;;;11.21;58.53;98227.34;4992195;28;20033;-49
2022/04/06 09:35:37;;;;;;;14.65;3.70;;;;;;;11.11;58.51;98238.09;5008400;28;20038;-53
2022/04/06 09:38:09;;;;;;;6.88;2.40;;;;;;;11.56;57.18;98239.06;4993357;28;20135;-50
2022/04/06 09:40:35;;;;;;;7.00;2.50;;;;;;;11.27;57.58;98236.19;4989651;28;20061;-52
2022/04/06 09:43:00;;;;;;;7.95;2.70;;;;;;;10.85;58.50;98234.59;4989798;28;20057;-52
2022/04/06 09:48:12;;;;;;;9.23;2.60;;;;;;;11.37;58.39;98247.69;4985356;28;20096;-52
2022/04/06 09:50:38;;;;;;;12.23;2.50;;;;;;;11.06;58.35;98240.75;4994869;28;20050;-52
2022/04/06 09:53:04;;;;;;;7.38;2.67;;;;;;;11.35;56.47;98231.06;4998212;28;20022;-50
2022/04/06 09:55:30;;;;;;;5.93;2.20;;;;;;;11.72;56.54;98234.44;4990564;28;20037;-50
2022/04/06 09:57:56;;;;;;;12.05;2.55;;;;;;;11.76;55.40;98236.31;4989046;28;20037;-52
2022/04/06 10:00:23;;;;;;;5.93;2.45;;;;;;;11.87;55.90;98235.22;4994663;28;20552;-52
2022/04/06 10:02:54;;;;;;;10.00;2.53;;;;;;;11.66;55.68;98241.72;4993949;28;20080;-51
2022/04/06 10:05:19;;;;;;;8.40;2.33;;;;;;;11.47;55.81;98238.00;4993861;28;20026;-51
2022/04/06 10:07:45;;;;;;;8.32;2.30;;;;;;;11.13;56.84;98242.09;4990900;28;20025;-52
2022/04/06 10:10:11;;;;;;;8.57;2.40;;;;;;;11.09;56.74;98240.22;4977639;28;20460;-52
2022/04/06 10:12:37;;;;;;;6.45;2.33;;;;;;;11.14;56.79;98238.34;4997909;28;20034;-50
2022/04/06 10:15:05;;;;;;;6.00;2.60;;;;;;;11.02;56.90;98235.13;4996647;28;20061;-53
2022/04/06 10:17:31;;;;;;;10.35;2.67;;;;;;;11.43;56.27;98235.88;4984828;28;20444;-52
2022/04/06 10:20:06;;;;;;;6.22;2.60;;;;;;;11.22;56.21;98235.09;4992672;28;20031;-51
2022/04/06 10:22:55;;;;;;;7.72;2.47;;;;;;;11.25;56.38;98233.75;4981730;28;20038;-50
2022/04/06 10:25:40;;;;;;;5.05;2.25;;;;;;;10.84;56.98;98233.00;4995649;28;21786;-50
2022/04/06 10:28:10;;;;;;;11.38;2.30;;;;;;;10.72;57.07;98235.94;4985897;28;20046;-52
2022/04/06 10:30:36;;;;;;;7.70;2.60;;;;;;;10.97;56.84;98238.63;4988429;28;20041;-50
2022/04/06 10:33:03;;;;;;;7.07;2.72;;;;;;;10.82;56.57;98235.13;4988690;28;20037;-52
2022/04/06 10:35:32;;;;;;;8.43;2.28;;;;;;;10.53;57.75;98225.75;4969855;28;20041;-52
2022/04/06 10:38:00;;;;;;;10.13;2.30;;;;;;;10.55;57.93;98226.25;4985975;28;20046;-52
2022/04/06 10:40:28;;;;;;;21.35;2.80;;;;;;;10.81;57.47;98220.94;4989711;28;20060;-54
2022/04/06 10:42:54;;;;;;;8.85;2.60;;;;;;;10.71;57.64;98218.25;4990402;28;20034;-55
2022/04/06 10:45:28;;;;;;;8.93;2.78;;;;;;;10.91;57.08;98212.88;4974370;28;20049;-53
2022/04/06 10:48:16;;;;;;;6.60;2.40;;;;;;;10.78;56.84;98221.44;4990862;28;20089;-53
2022/04/06 10:50:43;;;;;;;7.03;2.50;;;;;;;10.78;57.45;98222.28;4984954;28;20056;-53
2022/04/06 10:53:20;;;;;;;7.40;2.58;;;;;;;11.11;57.41;98222.00;4971046;28;20479;-51
2022/04/06 10:56:16;;;;;;;12.82;3.30;;;;;;;10.98;56.64;98209.91;4984402;28;20566;-55
2022/04/06 10:58:57;;;;;;;11.77;3.08;;;;;;;10.81;56.51;98207.53;4993105;28;20034;-54
2022/04/06 11:01:33;;;;;;;;;;;;;;;11.10;56.28;98210.44;4994034;28;20051;-50
2022/04/06 11:04:04;;;;;;;9.25;2.60;;;;;;;11.04;57.54;98205.38;4992251;28;20339;-51
2022/04/06 11:06:48;;;;;;;6.47;2.78;;;;;;;11.24;57.33;98199.97;4992007;28;20386;-52
2022/04/06 11:12:20;;;;;;;6.50;2.88;;;;;;;11.77;55.00;98197.66;4993006;28;20432;-51
2022/04/06 11:14:47;;;;;;;10.48;3.53;;;;;;;11.96;54.92;98197.06;4990415;28;20050;-51
2022/04/06 11:17:38;;;;;;;10.90;3.22;;;;;;;12.01;54.83;98180.94;4998954;28;20048;-52
2022/04/06 11:20:13;;;;;;;;;;;;;;;11.40;55.01;98182.75;4991275;28;20031;-53
2022/04/06 11:22:40;;;;;;;11.77;3.22;;;;;;;11.40;55.18;98182.75;4988349;28;20004;-51
2022/04/06 11:25:07;;;;;;;5.38;2.75;;;;;;;11.15;55.96;98186.28;4989349;28;20389;-52
2022/04/06 11:27:33;;;;;;;12.43;3.20;;;;;;;11.30;55.89;98180.09;4993646;28;20105;-53
2022/04/06 11:29:59;;;;;;;7.47;2.80;;;;;;;11.56;54.31;98177.34;4992452;28;20484;-53
2022/04/06 11:32:25;;;;;;;14.32;3.20;;;;;;;11.99;53.09;98196.50;4991625;28;20048;-53
2022/04/06 11:34:50;;;;;;;7.13;2.72;;;;;;;12.00;52.20;98166.69;4988524;28;20097;-52
2022/04/06 11:37:16;;;;;;;8.15;3.08;;;;;;;11.92;52.43;98171.84;4985678;28;20046;-52
2022/04/06 11:39:42;;;;;;;12.35;2.92;;;;;;;11.70;53.49;98153.41;4996601;28;20512;-51